Time;durP1;ratioP1;P1;durP2;ratioP2;P2;SDS_P1;SDS_P2;PMS_P1;PMS_P2;Temp;Humidity;BMP_temperature;BMP_pressure;BME280_temperature;BME280_humidity;BME280_pressure;Samples;Min_cycle;Max_cycle;Signal;HPM_P1;HPM_P2
2022/06/03 00:01:08;;;;;;;18.90;11.65;;;22.80;99.90;;;;;;6215059;23;20005;-73
2022/06/03 00:03:49;;;;;;;12.07;9.80;;;22.80;99.90;;;;;;6214966;23;19996;-72
2022/06/03 00:06:44;;;;;;;17.90;10.40;;;22.80;99.90;;;;;;6214875;23;20011;-74
2022/06/03 00:09:36;;;;;;;11.85;10.10;;;22.80;99.90;;;;;;6214894;23;20079;-74
2022/06/03 00:12:17;;;;;;;14.82;10.40;;;22.70;99.90;;;;;;6215022;23;20004;-74
2022/06/03 00:15:07;;;;;;;15.73;10.82;;;22.70;99.90;;;;;;6188271;23;20004;-74
2022/06/03 00:17:58;;;;;;;15.18;11.20;;;22.70;99.90;;;;;;6187831;23;20518;-74
2022/06/03 00:20:54;;;;;;;14.65;10.20;;;22.70;99.90;;;;;;6214807;23;20005;-74
2022/06/03 00:23:45;;;;;;;16.38;10.48;;;22.70;99.90;;;;;;6188312;23;20305;-74
2022/06/03 00:26:26;;;;;;;13.00;10.50;;;22.70;99.90;;;;;;6188267;23;20340;-74
2022/06/03 00:29:01;;;;;;;12.25;10.30;;;22.70;99.90;;;;;;6215154;23;20004;-74
2022/06/03 00:31:27;;;;;;;14.32;10.02;;;22.80;99.90;;;;;;6214889;23;20007;-74
2022/06/03 00:34:25;;;;;;;13.50;9.73;;;22.70;99.90;;;;;;6214592;23;19993;-74
2022/06/03 00:37:07;;;;;;;16.55;10.13;;;22.70;99.90;;;;;;6188190;23;20051;-74
2022/06/03 00:39:48;;;;;;;12.57;9.90;;;22.80;99.90;;;;;;6214754;23;20314;-74
2022/06/03 00:42:20;;;;;;;16.73;10.73;;;22.80;99.90;;;;;;6214938;23;19997;-74
2022/06/03 00:45:04;;;;;;;14.98;10.18;;;22.80;99.90;;;;;;6214807;23;20004;-74
2022/06/03 00:48:01;;;;;;;17.55;10.75;;;22.80;99.90;;;;;;6214696;23;19996;-74
2022/06/03 00:51:03;;;;;;;12.30;9.93;;;22.80;99.90;;;;;;6214984;23;20000;-74
2022/06/03 00:53:50;;;;;;;12.93;10.93;;;22.80;99.90;;;;;;6188288;23;20079;-74
2022/06/03 00:56:40;;;;;;;12.63;9.73;;;22.80;99.90;;;;;;6214799;23;20015;-74
2022/06/03 00:59:35;;;;;;;13.38;10.50;;;22.80;99.90;;;;;;6216480;23;20000;-74
2022/06/03 01:02:31;;;;;;;13.90;9.85;;;22.90;99.90;;;;;;6165520;23;20092;-74
2022/06/03 01:05:35;;;;;;;13.63;10.18;;;22.90;99.90;;;;;;6189919;23;20321;-74
2022/06/03 01:08:06;;;;;;;11.25;8.80;;;22.90;99.90;;;;;;6095059;23;20089;-72
2022/06/03 01:11:09;;;;;;;11.93;9.70;;;22.90;99.90;;;;;;6095042;23;20017;-72
2022/06/03 01:13:44;;;;;;;9.65;8.38;;;22.90;99.90;;;;;;6186683;23;20070;-74
2022/06/03 01:16:53;;;;;;;10.18;8.65;;;22.90;99.90;;;;;;6216363;23;20012;-74
2022/06/03 01:19:34;;;;;;;12.77;9.10;;;23.00;99.90;;;;;;6184800;23;20040;-74
2022/06/03 01:22:18;;;;;;;15.48;9.50;;;23.00;99.90;;;;;;6216511;23;20028;-74
2022/06/03 01:24:59;;;;;;;11.60;8.90;;;23.00;99.90;;;;;;6216301;23;20001;-74
2022/06/03 01:27:28;;;;;;;13.90;9.55;;;23.00;99.90;;;;;;6189261;23;20039;-74
2022/06/03 01:30:08;;;;;;;14.15;10.07;;;23.10;99.90;;;;;;6188972;23;20455;-74
2022/06/03 01:32:46;;;;;;;12.55;10.07;;;23.10;99.90;;;;;;6216521;23;20001;-74
2022/06/03 01:35:59;;;;;;;12.60;9.90;;;23.10;99.90;;;;;;6216468;23;20007;-74
2022/06/03 01:38:32;;;;;;;16.95;9.90;;;23.00;99.90;;;;;;6188535;23;20008;-74
2022/06/03 01:41:24;;;;;;;15.02;10.48;;;23.10;99.90;;;;;;6215754;23;20421;-74
2022/06/03 01:43:59;;;;;;;12.50;10.48;;;23.10;99.90;;;;;;6215590;23;20001;-74
2022/06/03 01:46:29;;;;;;;13.45;10.38;;;23.10;99.90;;;;;;6215601;23;20487;-74
2022/06/03 01:48:57;;;;;;;11.88;10.07;;;23.00;99.90;;;;;;6213987;23;20579;-74
2022/06/03 01:51:58;;;;;;;13.30;10.07;;;23.00;99.90;;;;;;6215416;23;20007;-74
2022/06/03 01:54:56;;;;;;;13.98;10.40;;;22.90;99.90;;;;;;6215556;23;20008;-74
2022/06/03 01:57:50;;;;;;;14.18;10.98;;;22.90;99.90;;;;;;6215559;23;20004;-74
2022/06/03 02:00:30;;;;;;;12.02;10.45;;;22.90;99.90;;;;;;6215465;23;20050;-74
2022/06/03 02:03:02;;;;;;;11.20;9.98;;;22.90;99.90;;;;;;6215599;23;20447;-74
2022/06/03 02:05:50;;;;;;;11.93;9.80;;;22.90;99.90;;;;;;6214046;23;20009;-74
2022/06/03 02:08:30;;;;;;;12.88;10.93;;;22.80;99.90;;;;;;6215486;23;20059;-74
2022/06/03 02:11:14;;;;;;;15.20;11.68;;;22.80;99.90;;;;;;6214068;23;20436;-74
2022/06/03 02:14:08;;;;;;;15.27;11.60;;;22.80;99.90;;;;;;6216203;23;20083;-74
2022/06/03 02:16:49;;;;;;;16.60;11.63;;;22.70;99.90;;;;;;6215840;23;20036;-74
2022/06/03 02:19:30;;;;;;;16.00;13.00;;;22.70;99.90;;;;;;6214054;23;20021;-74
2022/06/03 02:22:23;;;;;;;17.73;11.90;;;22.70;99.90;;;;;;6216062;23;20055;-74
2022/06/03 02:25:01;;;;;;;13.35;11.13;;;22.80;99.90;;;;;;6215955;23;20341;-74
2022/06/03 02:27:39;;;;;;;16.75;10.88;;;22.80;99.90;;;;;;6215965;23;20000;-74
2022/06/03 02:30:29;;;;;;;19.10;12.63;;;22.70;99.90;;;;;;6215852;23;20007;-74
2022/06/03 02:33:15;;;;;;;12.32;10.63;;;22.70;99.90;;;;;;6215351;23;20401;-74
2022/06/03 02:35:46;;;;;;;12.63;11.32;;;22.70;99.90;;;;;;6215364;23;20015;-74
2022/06/03 02:38:32;;;;;;;12.05;10.85;;;22.70;99.90;;;;;;6215782;23;20001;-74
2022/06/03 02:41:07;;;;;;;14.32;11.70;;;22.70;99.90;;;;;;6215790;23;20353;-74
2022/06/03 02:43:57;;;;;;;14.10;11.10;;;22.60;99.90;;;;;;6214037;23;20027;-74
2022/06/03 02:46:51;;;;;;;21.45;11.52;;;22.50;99.90;;;;;;6215589;23;20076;-74
2022/06/03 02:49:37;;;;;;;15.35;11.80;;;22.60;99.90;;;;;;6215399;23;20005;-74
2022/06/03 02:52:36;;;;;;;12.27;10.65;;;22.60;99.90;;;;;;6214742;23;20087;-74
2022/06/03 02:55:32;;;;;;;18.38;11.57;;;22.60;99.90;;;;;;6215153;23;20490;-74
2022/06/03 02:58:25;;;;;;;14.68;11.73;;;22.60;99.90;;;;;;6214961;23;20004;-74
2022/06/03 03:01:39;;;;;;;16.10;12.05;;;22.60;99.90;;;;;;6214682;23;20074;-74
2022/06/03 03:04:49;;;;;;;13.75;12.20;;;22.60;99.90;;;;;;6206836;23;20058;-74
2022/06/03 03:07:30;;;;;;;20.08;12.65;;;22.60;99.90;;;;;;6214478;23;20067;-74
2022/06/03 03:10:17;;;;;;;17.05;12.20;;;22.50;99.90;;;;;;6213980;23;20063;-74
2022/06/03 03:13:00;;;;;;;17.33;12.57;;;22.50;99.90;;;;;;6214882;23;20345;-74
2022/06/03 03:15:38;;;;;;;20.60;12.35;;;22.50;99.90;;;;;;6214215;23;19997;-74
2022/06/03 03:18:37;;;;;;;15.63;12.00;;;22.40;99.90;;;;;;6214001;23;20013;-74
2022/06/03 03:21:12;;;;;;;16.17;12.57;;;22.40;99.90;;;;;;6214201;23;20015;-74
2022/06/03 03:24:05;;;;;;;14.55;12.18;;;22.40;99.90;;;;;;6214217;23;20005;-72
2022/06/03 03:27:15;;;;;;;14.00;12.40;;;22.40;99.90;;;;;;6213948;23;20031;-74
2022/06/03 03:30:06;;;;;;;15.55;12.00;;;22.40;99.90;;;;;;6214140;23;20027;-74
2022/06/03 03:32:50;;;;;;;13.70;12.27;;;22.30;99.90;;;;;;6213424;23;20034;-74
2022/06/03 03:35:39;;;;;;;19.58;12.68;;;22.30;99.90;;;;;;6213496;23;20318;-74
2022/06/03 03:38:26;;;;;;;13.35;12.05;;;22.30;99.90;;;;;;6215362;23;20000;-74
2022/06/03 03:41:24;;;;;;;14.25;12.32;;;22.30;99.90;;;;;;6215224;23;20421;-74
2022/06/03 03:44:18;;;;;;;14.15;11.68;;;22.20;99.90;;;;;;6215132;23;20051;-74
2022/06/03 03:47:49;;;;;;;13.73;11.93;;;22.20;99.90;;;;;;6215356;23;20005;-74
2022/06/03 03:50:23;;;;;;;17.90;12.73;;;22.20;99.90;;;;;;6215357;23;20001;-74
2022/06/03 03:53:18;;;;;;;17.88;12.10;;;22.20;99.90;;;;;;6215520;23;20425;-74
2022/06/03 03:56:24;;;;;;;14.95;11.75;;;22.20;99.90;;;;;;6210330;23;20012;-74
2022/06/03 03:59:07;;;;;;;20.33;12.95;;;22.10;99.90;;;;;;6215172;23;20005;-74
2022/06/03 04:01:41;;;;;;;;;;;22.10;99.90;;;;;;6215520;23;20116;-74
2022/06/03 04:04:28;;;;;;;14.57;11.23;;;22.00;99.90;;;;;;6215274;23;19900;-74
2022/06/03 04:07:15;;;;;;;16.58;12.68;;;22.00;99.90;;;;;;6215212;23;20058;-74
2022/06/03 04:10:11;;;;;;;15.90;13.40;;;22.00;99.90;;;;;;6215175;23;20001;-74
2022/06/03 04:13:11;;;;;;;15.45;13.10;;;22.00;99.90;;;;;;6213286;23;20004;-74
2022/06/03 04:15:55;;;;;;;24.33;13.10;;;22.00;99.90;;;;;;6213309;23;20333;-74
2022/06/03 04:18:42;;;;;;;14.77;13.20;;;22.00;99.90;;;;;;6214673;23;20479;-74
2022/06/03 04:21:34;;;;;;;15.82;12.40;;;22.00;99.90;;;;;;6214912;23;20020;-74
2022/06/03 04:24:10;;;;;;;15.77;12.77;;;22.10;99.90;;;;;;6214976;23;20070;-74
2022/06/03 04:26:42;;;;;;;15.73;12.48;;;22.10;99.90;;;;;;6214788;23;20001;-74
2022/06/03 04:29:34;;;;;;;18.52;12.52;;;22.10;99.90;;;;;;6215044;23;20001;-74
2022/06/03 04:32:35;;;;;;;14.48;12.20;;;22.20;99.90;;;;;;6214353;23;20004;-74
2022/06/03 04:35:03;;;;;;;19.95;13.70;;;22.20;99.90;;;;;;6195632;23;20015;-74
2022/06/03 04:38:06;;;;;;;16.20;13.60;;;22.20;99.90;;;;;;6216746;23;20020;-74
2022/06/03 04:41:02;;;;;;;16.02;12.82;;;22.20;99.90;;;;;;6216399;23;20444;-74
2022/06/03 04:43:35;;;;;;;18.00;12.60;;;22.20;99.90;;;;;;6216661;23;20044;-74
2022/06/03 04:46:19;;;;;;;17.00;12.50;;;22.30;99.90;;;;;;6216850;23;20074;-74
2022/06/03 04:49:02;;;;;;;15.65;12.48;;;22.30;99.90;;;;;;6216692;23;20024;-74
2022/06/03 04:52:05;;;;;;;23.27;13.82;;;22.40;99.90;;;;;;6216823;23;20448;-74
2022/06/03 04:54:43;;;;;;;17.08;12.68;;;22.50;99.90;;;;;;6215471;23;20004;-74
2022/06/03 04:57:33;;;;;;;17.73;12.88;;;22.50;99.90;;;;;;6188781;23;20459;-74
2022/06/03 05:00:05;;;;;;;14.90;12.50;;;22.60;99.90;;;;;;6215096;23;20000;-74
2022/06/03 05:02:36;;;;;;;17.30;12.82;;;22.60;99.90;;;;;;6215334;23;20001;-74
2022/06/03 05:05:44;;;;;;;16.45;12.98;;;22.70;99.90;;;;;;6215292;23;20067;-74
2022/06/03 05:08:47;;;;;;;20.92;12.55;;;22.80;99.90;;;;;;6215137;23;20499;-74
2022/06/03 05:11:36;;;;;;;17.02;12.52;;;22.80;99.90;;;;;;6215207;23;20488;-74
2022/06/03 05:14:04;;;;;;;13.95;11.90;;;22.80;99.90;;;;;;6198873;23;20004;-74
2022/06/03 05:16:39;;;;;;;14.82;12.10;;;22.80;99.90;;;;;;6215415;23;20317;-74
2022/06/03 05:19:23;;;;;;;16.30;12.52;;;22.90;99.90;;;;;;6216421;23;20008;-74
2022/06/03 05:22:16;;;;;;;14.00;11.80;;;23.00;99.90;;;;;;6216786;23;20421;-74
2022/06/03 05:24:50;;;;;;;17.27;12.80;;;23.00;99.90;;;;;;6216359;23;20001;-74
2022/06/03 05:27:19;;;;;;;17.83;13.23;;;23.00;99.90;;;;;;6215990;23;20005;-74
2022/06/03 05:30:03;;;;;;;17.08;13.00;;;23.00;99.90;;;;;;6216110;23;20007;-74
2022/06/03 05:32:51;;;;;;;19.02;13.57;;;23.10;99.90;;;;;;6216672;23;20008;-74
2022/06/03 05:35:20;;;;;;;20.25;13.77;;;23.10;99.90;;;;;;6216439;23;20439;-74
2022/06/03 05:37:58;;;;;;;17.98;13.77;;;23.10;99.90;;;;;;6216651;23;20295;-74
2022/06/03 05:40:42;;;;;;;17.05;13.77;;;23.10;99.90;;;;;;6215499;23;20434;-74
2022/06/03 05:43:22;;;;;;;16.20;12.93;;;23.10;99.90;;;;;;6214766;23;20007;-74
2022/06/03 05:45:56;;;;;;;16.23;13.93;;;23.20;99.90;;;;;;6214711;23;20317;-74
2022/06/03 05:48:43;;;;;;;16.83;14.18;;;23.20;99.90;;;;;;6188619;23;20032;-74
2022/06/03 05:51:31;;;;;;;17.85;13.15;;;23.20;99.90;;;;;;6215138;23;20491;-74
2022/06/03 05:54:35;;;;;;;15.32;13.20;;;23.30;99.90;;;;;;6215132;23;20001;-74
2022/06/03 05:57:30;;;;;;;14.40;11.70;;;23.30;99.90;;;;;;6215875;23;20011;-74
2022/06/03 06:00:20;;;;;;;20.17;13.38;;;23.30;99.90;;;;;;6216372;23;20005;-74
2022/06/03 06:02:58;;;;;;;15.75;12.98;;;23.40;99.90;;;;;;6189402;23;20005;-74
2022/06/03 06:05:55;;;;;;;20.00;13.57;;;23.40;99.90;;;;;;6215838;23;20024;-74
2022/06/03 06:08:53;;;;;;;15.32;12.85;;;23.50;99.90;;;;;;6166894;23;20004;-74
2022/06/03 06:11:29;;;;;;;17.67;12.57;;;23.50;99.90;;;;;;6216158;23;20007;-74
2022/06/03 06:14:31;;;;;;;17.48;13.35;;;23.50;99.90;;;;;;6216141;23;20005;-74
2022/06/03 06:17:13;;;;;;;16.15;12.65;;;23.60;99.90;;;;;;6215999;23;20351;-74
2022/06/03 06:19:53;;;;;;;19.10;13.38;;;23.70;99.90;;;;;;6215771;23;20016;-75
2022/06/03 06:22:29;;;;;;;17.75;13.18;;;23.70;99.90;;;;;;6215902;23;20023;-74
2022/06/03 06:25:04;;;;;;;16.05;12.57;;;23.80;99.90;;;;;;6216149;23;19996;-74
2022/06/03 06:27:57;;;;;;;17.23;12.43;;;23.80;99.90;;;;;;6189260;23;20004;-74
2022/06/03 06:30:38;;;;;;;20.80;12.80;;;23.80;99.90;;;;;;6189087;23;20008;-74
2022/06/03 06:33:25;;;;;;;14.32;12.00;;;23.90;99.90;;;;;;6216077;23;20000;-74
2022/06/03 06:36:03;;;;;;;18.60;12.15;;;23.90;99.90;;;;;;6215695;23;20007;-72
2022/06/03 06:38:53;;;;;;;17.30;12.80;;;24.00;99.90;;;;;;6215959;23;20004;-72
2022/06/03 06:42:07;;;;;;;16.42;12.52;;;24.10;99.90;;;;;;6215545;23;20005;-72
2022/06/03 06:44:54;;;;;;;23.60;13.40;;;24.10;99.90;;;;;;6093999;23;20308;-72
2022/06/03 06:47:30;;;;;;;24.05;13.77;;;24.20;99.90;;;;;;6069683;23;20006;-72
2022/06/03 06:50:06;;;;;;;16.35;12.00;;;24.20;99.90;;;;;;6176513;23;20569;-74
2022/06/03 06:52:50;;;;;;;22.60;13.27;;;24.30;99.90;;;;;;6215736;23;20368;-74
2022/06/03 06:55:32;;;;;;;17.63;12.23;;;24.30;99.90;;;;;;6215314;23;20024;-74
2022/06/03 06:58:06;;;;;;;19.52;13.45;;;24.40;99.90;;;;;;6215604;23;20455;-74
2022/06/03 07:00:43;;;;;;;23.48;12.65;;;24.40;99.90;;;;;;6188752;23;20008;-74
2022/06/03 07:03:39;;;;;;;24.25;12.75;;;24.40;99.90;;;;;;6215705;23;20413;-74
2022/06/03 07:06:23;;;;;;;15.95;11.27;;;24.40;99.90;;;;;;6215238;23;20413;-74
2022/06/03 07:08:57;;;;;;;20.40;12.35;;;24.40;99.90;;;;;;6215483;23;19997;-74
2022/06/03 07:11:30;;;;;;;20.77;13.00;;;24.40;99.90;;;;;;6215500;23;20519;-74
2022/06/03 07:14:02;;;;;;;19.60;12.18;;;24.50;99.90;;;;;;6215479;23;19997;-74
2022/06/03 07:19:49;;;;;;;19.75;12.95;;;24.60;99.90;;;;;;6215060;23;20051;-72
2022/06/03 07:22:41;;;;;;;18.40;12.15;;;24.60;99.90;;;;;;6215488;23;20004;-72
2022/06/03 07:25:24;;;;;;;19.00;12.30;;;24.60;99.90;;;;;;6215148;23;19997;-72
2022/06/03 07:28:05;;;;;;;17.58;12.07;;;24.70;99.90;;;;;;6215358;23;20051;-72
2022/06/03 07:30:36;;;;;;;15.25;12.07;;;24.70;99.90;;;;;;6215404;23;20015;-72
2022/06/03 07:33:11;;;;;;;19.00;12.30;;;24.80;99.90;;;;;;6215217;23;20435;-72
2022/06/03 07:35:42;;;;;;;17.30;12.50;;;24.80;99.90;;;;;;6215371;23;20431;-72
2022/06/03 07:38:24;;;;;;;20.48;12.32;;;24.80;99.90;;;;;;6215373;23;20071;-72
2022/06/03 07:40:58;;;;;;;15.05;13.00;;;24.80;99.90;;;;;;6215177;23;20032;-72
2022/06/03 07:43:35;;;;;;;21.67;12.35;;;24.90;99.90;;;;;;6215233;23;20003;-72
2022/06/03 07:46:32;;;;;;;13.80;10.98;;;24.90;99.90;;;;;;6188601;23;20091;-72
2022/06/03 07:48:58;;;;;;;17.55;12.93;;;24.90;99.90;;;;;;6181847;23;20321;-72
2022/06/03 07:51:37;;;;;;;21.60;12.05;;;25.00;99.90;;;;;;6215084;23;20100;-72
2022/06/03 07:54:18;;;;;;;14.25;11.68;;;25.00;99.90;;;;;;6215381;23;20024;-73
2022/06/03 07:56:43;;;;;;;17.83;11.80;;;25.00;99.90;;;;;;6214857;23;20068;-72
2022/06/03 07:59:20;;;;;;;18.35;12.18;;;25.00;99.90;;;;;;6214865;23;20075;-72
2022/06/03 08:02:01;;;;;;;17.13;12.38;;;24.90;99.90;;;;;;6214711;23;20413;-72
2022/06/03 08:04:33;;;;;;;18.73;13.33;;;24.90;99.90;;;;;;6214983;23;19997;-72
2022/06/03 08:12:35;;;;;;;14.68;12.88;;;25.00;99.90;;;;;;6215070;23;20066;-72
2022/06/03 08:15:19;;;;;;;17.75;11.95;;;25.00;99.90;;;;;;6215046;23;20024;-72
2022/06/03 08:17:46;;;;;;;15.75;11.85;;;25.00;99.90;;;;;;6214576;23;20017;-72
2022/06/03 08:20:14;;;;;;;15.43;12.63;;;25.20;99.90;;;;;;6214910;23;20075;-73
2022/06/03 08:22:41;;;;;;;16.85;11.93;;;25.30;99.90;;;;;;6215052;23;20024;-72
2022/06/03 08:25:08;;;;;;;16.95;12.10;;;25.30;99.90;;;;;;6214603;23;20008;-73
2022/06/03 08:27:36;;;;;;;17.17;10.93;;;25.40;99.90;;;;;;6214844;23;19996;-73
2022/06/03 08:30:12;;;;;;;15.73;11.15;;;25.50;99.90;;;;;;6215135;23;20004;-72
2022/06/03 08:32:58;;;;;;;14.30;11.02;;;25.60;99.90;;;;;;6214752;23;20015;-72
2022/06/03 08:35:31;;;;;;;14.75;10.13;;;25.70;99.90;;;;;;6214820;23;20102;-72
2022/06/03 08:38:07;;;;;;;13.30;10.10;;;25.60;99.90;;;;;;6214475;23;20623;-73
2022/06/03 08:40:54;;;;;;;12.55;9.45;;;25.60;99.90;;;;;;6214866;23;20004;-73
2022/06/03 08:43:29;;;;;;;14.25;10.00;;;25.60;99.90;;;;;;6214708;23;20456;-73
2022/06/03 08:46:19;;;;;;;14.70;10.25;;;25.70;99.90;;;;;;6214352;23;20000;-73
2022/06/03 08:48:47;;;;;;;13.07;9.88;;;25.80;99.90;;;;;;6168127;23;20009;-73
2022/06/03 08:51:27;;;;;;;12.45;9.32;;;25.90;99.90;;;;;;6214760;23;20333;-73
2022/06/03 08:54:09;;;;;;;14.60;10.40;;;26.00;99.90;;;;;;6214651;23;20008;-73
2022/06/03 08:56:39;;;;;;;14.05;10.63;;;26.00;99.90;;;;;;6213247;23;20011;-73
2022/06/03 08:59:25;;;;;;;16.27;10.07;;;26.10;99.90;;;;;;6214686;23;20516;-73
2022/06/03 09:02:00;;;;;;;11.15;9.57;;;26.20;99.90;;;;;;6214883;23;19997;-73
2022/06/03 09:04:39;;;;;;;13.10;10.02;;;26.30;99.90;;;;;;6214873;23;20007;-73
2022/06/03 09:07:24;;;;;;;10.90;9.23;;;26.40;99.90;;;;;;6214863;23;20028;-73
2022/06/03 09:10:14;;;;;;;13.50;9.25;;;26.50;99.90;;;;;;6214821;23;20391;-73
2022/06/03 09:13:00;;;;;;;15.88;9.80;;;26.60;99.90;;;;;;6214799;23;20004;-73
2022/06/03 09:15:49;;;;;;;10.55;9.02;;;26.60;99.90;;;;;;6214587;23;20447;-73
2022/06/03 09:18:36;;;;;;;13.10;8.98;;;26.60;99.90;;;;;;6199250;23;20021;-73
2022/06/03 09:21:05;;;;;;;14.43;10.00;;;26.60;99.90;;;;;;6214647;23;20005;-73
2022/06/03 09:23:39;;;;;;;17.20;9.30;;;26.60;99.90;;;;;;6216477;23;20008;-73
2022/06/03 09:26:05;;;;;;;12.85;8.65;;;26.60;99.90;;;;;;6216438;23;20003;-73
2022/06/03 09:28:34;;;;;;;9.63;8.68;;;26.70;99.90;;;;;;6216658;23;20001;-73
2022/06/03 09:31:05;;;;;;;14.32;9.02;;;26.80;99.90;;;;;;6214974;23;20012;-73
2022/06/03 09:33:33;;;;;;;10.93;9.10;;;26.80;99.90;;;;;;6216665;23;20001;-73
2022/06/03 09:36:03;;;;;;;10.45;7.97;;;26.80;99.90;;;;;;6216327;23;20425;-73
2022/06/03 09:38:42;;;;;;;10.50;7.80;;;26.90;99.90;;;;;;6216493;23;20004;-73
2022/06/03 09:41:09;;;;;;;10.15;7.65;;;26.90;99.90;;;;;;6216507;23;20309;-73
2022/06/03 09:43:37;;;;;;;7.57;6.75;;;26.90;99.90;;;;;;6216505;23;20055;-73
2022/06/03 09:46:08;;;;;;;5.85;4.90;;;27.00;99.90;;;;;;6216433;23;20000;-73
2022/06/03 09:48:36;;;;;;;6.18;5.68;;;27.10;99.90;;;;;;6216431;23;20080;-73
2022/06/03 09:51:08;;;;;;;7.60;5.63;;;27.20;99.90;;;;;;6216578;23;20329;-73
2022/06/03 09:53:36;;;;;;;5.45;5.00;;;27.30;99.90;;;;;;6216415;23;20000;-73
2022/06/03 09:56:07;;;;;;;7.90;5.28;;;27.40;99.90;;;;;;6216024;23;20001;-73
2022/06/03 09:58:34;;;;;;;6.78;5.07;;;27.50;99.90;;;;;;6216270;23;20004;-73
2022/06/03 10:01:03;;;;;;;6.90;6.05;;;27.50;99.90;;;;;;6214325;23;20041;-73
2022/06/03 10:03:29;;;;;;;12.02;5.80;;;27.60;99.90;;;;;;6216456;23;20084;-73
2022/06/03 10:05:58;;;;;;;8.38;4.97;;;27.60;99.70;;;;;;6216006;23;20421;-73
2022/06/03 10:12:48;;;;;;;10.80;5.15;;;27.70;99.90;;;;;;6216175;23;20076;-73
2022/06/03 10:14:02;;;;;;;5.90;5.35;;;27.60;99.90;;;;;;6216203;23;20515;-73
2022/06/03 10:16:28;;;;;;;5.68;5.18;;;27.60;99.90;;;;;;6214435;23;20000;-73
2022/06/03 10:18:56;;;;;;;7.38;5.03;;;27.60;99.90;;;;;;6215800;23;20040;-73
2022/06/03 10:21:21;;;;;;;6.85;5.45;;;27.60;99.90;;;;;;6214549;23;20057;-73
2022/06/03 10:24:00;;;;;;;6.28;4.95;;;27.60;99.80;;;;;;6215819;23;20001;-73
2022/06/03 10:26:33;;;;;;;9.35;5.40;;;27.60;99.30;;;;;;6215761;23;20000;-73
2022/06/03 10:29:07;;;;;;;5.18;4.70;;;27.60;99.70;;;;;;6215950;23;20055;-73
2022/06/03 10:31:35;;;;;;;6.00;5.07;;;27.50;99.50;;;;;;6213711;23;20052;-72
2022/06/03 10:34:10;;;;;;;6.93;5.10;;;27.50;99.30;;;;;;6215971;23;20088;-72
2022/06/03 10:36:42;;;;;;;9.32;5.75;;;27.60;99.10;;;;;;6215732;23;19997;-73
2022/06/03 10:39:13;;;;;;;5.97;5.43;;;27.60;99.80;;;;;;6215828;23;20004;-73
2022/06/03 10:41:45;;;;;;;6.85;5.35;;;27.60;99.80;;;;;;6215943;23;20001;-73
2022/06/03 10:44:17;;;;;;;7.85;5.55;;;27.70;99.90;;;;;;6216000;23;20005;-73
2022/06/03 10:46:58;;;;;;;6.25;5.30;;;27.60;98.90;;;;;;6215590;23;19997;-73
2022/06/03 10:49:25;;;;;;;7.30;5.45;;;27.70;99.40;;;;;;6215545;23;20012;-73
2022/06/03 11:02:56;;;;;;;8.23;5.60;;;27.50;99.90;;;;;;6215684;23;20455;-73
2022/06/03 11:05:31;;;;;;;8.98;5.07;;;27.40;99.40;;;;;;6215496;23;20000;-73
2022/06/03 11:07:56;;;;;;;7.00;5.20;;;27.40;99.70;;;;;;6214172;23;20310;-73
2022/06/03 11:10:44;;;;;;;7.00;5.25;;;27.30;99.70;;;;;;6215623;23;20008;-73
2022/06/03 11:13:12;;;;;;;5.97;5.13;;;27.30;99.50;;;;;;6215454;23;20001;-73
2022/06/03 11:15:44;;;;;;;6.45;5.40;;;27.30;98.90;;;;;;6215215;23;20011;-73
2022/06/03 11:18:17;;;;;;;;;;;27.30;99.40;;;;;;6215878;23;20371;-73
2022/06/03 11:20:45;;;;;;;9.38;5.10;;;27.20;99.90;;;;;;6215507;23;19942;-73
2022/06/03 11:23:13;;;;;;;6.10;5.05;;;27.20;99.90;;;;;;6215643;23;20070;-73
2022/06/03 11:25:51;;;;;;;6.97;5.65;;;27.20;99.90;;;;;;6215161;23;20552;-73
2022/06/03 11:28:31;;;;;;;5.50;4.95;;;27.10;99.90;;;;;;6215551;23;20004;-73
2022/06/03 11:31:06;;;;;;;6.40;5.55;;;27.10;99.90;;;;;;6215341;23;20506;-73
2022/06/03 11:33:43;;;;;;;7.40;5.68;;;27.00;99.90;;;;;;6213760;23;20009;-73
2022/06/03 11:36:35;;;;;;;6.53;5.93;;;27.00;99.90;;;;;;6215356;23;20011;-73
2022/06/03 11:39:29;;;;;;;6.60;6.03;;;27.00;99.90;;;;;;6215240;23;20012;-73
2022/06/03 11:42:06;;;;;;;6.65;6.10;;;26.90;99.90;;;;;;6215558;23;20000;-73
2022/06/03 11:44:39;;;;;;;9.30;6.53;;;26.90;99.90;;;;;;6214772;23;20004;-73
2022/06/03 11:47:23;;;;;;;6.53;6.00;;;26.80;99.90;;;;;;6215240;23;20386;-73
2022/06/03 11:49:50;;;;;;;12.50;7.00;;;26.90;99.90;;;;;;6215114;23;20055;-73
2022/06/03 11:52:16;;;;;;;7.40;6.70;;;26.80;99.90;;;;;;6215123;23;20009;-73
2022/06/03 11:54:42;;;;;;;13.15;7.05;;;26.80;99.90;;;;;;6215184;23;19996;-73
2022/06/03 11:57:09;;;;;;;9.75;7.75;;;26.80;99.90;;;;;;6215182;23;20000;-73
2022/06/03 11:59:39;;;;;;;9.43;8.43;;;26.70;99.90;;;;;;6215131;23;20087;-73
2022/06/03 12:02:13;;;;;;;11.82;9.52;;;26.70;99.90;;;;;;6215315;23;19996;-73
2022/06/03 12:04:52;;;;;;;15.05;10.10;;;26.70;99.90;;;;;;6214955;23;20312;-73
2022/06/03 12:07:41;;;;;;;9.60;8.75;;;26.60;99.90;;;;;;6215028;23;20004;-73
2022/06/03 12:10:48;;;;;;;11.00;9.10;;;26.50;99.90;;;;;;6215079;23;20004;-73
2022/06/03 12:13:30;;;;;;;10.75;9.35;;;26.50;99.90;;;;;;6199597;23;20005;-73
2022/06/03 12:15:56;;;;;;;10.52;9.48;;;26.40;99.90;;;;;;6214803;23;20001;-73
2022/06/03 12:18:31;;;;;;;13.07;9.93;;;26.30;99.90;;;;;;6188180;23;20055;-73
2022/06/03 12:20:58;;;;;;;16.88;11.63;;;26.30;99.90;;;;;;6214989;23;20087;-73
2022/06/03 12:23:23;;;;;;;14.13;12.23;;;26.30;99.90;;;;;;6214936;23;19996;-73
2022/06/03 12:25:51;;;;;;;15.40;10.80;;;26.20;99.90;;;;;;6214844;23;20008;-73
2022/06/03 12:28:24;;;;;;;14.00;10.38;;;26.20;99.90;;;;;;6215040;23;20004;-73
2022/06/03 12:30:56;;;;;;;12.52;10.88;;;26.20;99.90;;;;;;6214805;23;20490;-73
2022/06/03 12:33:31;;;;;;;13.90;9.82;;;26.20;99.90;;;;;;6214954;23;20001;-73
2022/06/03 12:35:59;;;;;;;10.30;9.25;;;26.20;99.90;;;;;;6187651;23;20424;-73
2022/06/03 12:38:33;;;;;;;10.63;7.55;;;26.10;99.90;;;;;;6188222;23;20008;-73
2022/06/03 12:41:05;;;;;;;10.05;7.60;;;26.10;99.90;;;;;;6215117;23;20001;-73
2022/06/03 12:43:55;;;;;;;12.07;7.82;;;26.00;99.90;;;;;;6187844;23;20055;-73
2022/06/03 12:47:15;;;;;;;11.95;8.68;;;25.90;99.90;;;;;;6159690;23;20055;-73
2022/06/03 12:49:44;;;;;;;10.45;8.15;;;25.90;99.90;;;;;;6166986;23;20005;-73
2022/06/03 12:52:35;;;;;;;9.13;8.18;;;25.90;99.90;;;;;;6214603;23;20000;-73
2022/06/03 12:55:13;;;;;;;9.52;7.65;;;25.90;99.90;;;;;;6216407;23;20028;-73
2022/06/03 12:57:48;;;;;;;8.82;7.80;;;25.90;99.90;;;;;;6217044;23;20417;-73
2022/06/03 13:00:36;;;;;;;8.63;7.72;;;25.80;99.90;;;;;;6190116;23;20010;-73
2022/06/03 13:03:02;;;;;;;12.02;7.82;;;25.80;99.90;;;;;;6216954;23;20024;-73
2022/06/03 13:05:34;;;;;;;8.63;7.80;;;25.70;99.90;;;;;;6216793;23;20024;-72
2022/06/03 13:08:08;;;;;;;10.30;8.07;;;25.70;99.90;;;;;;6216916;23;20084;-73
2022/06/03 13:10:56;;;;;;;11.10;8.25;;;25.70;99.90;;;;;;6216750;23;20055;-73
2022/06/03 13:13:33;;;;;;;9.93;8.93;;;25.60;99.90;;;;;;6216819;23;20010;-73
2022/06/03 13:16:31;;;;;;;10.27;8.82;;;25.60;99.90;;;;;;6189709;23;20012;-73
2022/06/03 13:19:19;;;;;;;10.15;8.90;;;25.60;99.90;;;;;;6216182;23;20100;-73
2022/06/03 13:22:02;;;;;;;12.90;9.65;;;25.50;99.90;;;;;;6216484;23;20083;-73
2022/06/03 13:24:36;;;;;;;12.13;9.75;;;25.40;99.90;;;;;;6189735;23;20422;-72
2022/06/03 13:27:26;;;;;;;11.93;9.70;;;25.40;99.90;;;;;;6216596;23;20001;-72
2022/06/03 13:29:52;;;;;;;13.27;9.18;;;25.30;99.90;;;;;;6216422;23;20418;-72
2022/06/03 13:32:36;;;;;;;13.35;10.68;;;25.20;99.90;;;;;;6214895;23;20020;-73
2022/06/03 13:35:25;;;;;;;14.65;10.95;;;25.10;99.90;;;;;;6216510;23;20368;-73
2022/06/03 13:38:16;;;;;;;13.18;11.23;;;25.00;99.90;;;;;;6216237;23;20552;-73
2022/06/03 13:42:57;;;;;;;12.57;10.23;;;25.00;99.90;;;;;;6216246;23;20459;-73
2022/06/03 13:43:29;;;;;;;12.50;10.18;;;25.00;99.90;;;;;;6216508;23;20015;-73
2022/06/03 13:46:05;;;;;;;12.80;10.98;;;24.90;99.90;;;;;;6216320;23;20004;-73
2022/06/03 13:48:37;;;;;;;15.57;11.32;;;24.90;99.90;;;;;;6216378;23;20084;-73
2022/06/03 13:51:34;;;;;;;15.73;11.05;;;24.80;99.90;;;;;;6214559;23;20008;-73
2022/06/03 13:54:40;;;;;;;13.52;11.23;;;24.70;99.90;;;;;;6216374;23;20000;-73
2022/06/03 13:57:21;;;;;;;21.50;12.52;;;24.60;99.90;;;;;;6213326;23;20015;-73
2022/06/03 13:59:50;;;;;;;18.42;13.40;;;24.60;99.90;;;;;;6216010;23;20007;-73
2022/06/03 14:02:37;;;;;;;17.58;13.98;;;24.60;99.90;;;;;;6216252;23;20388;-73
2022/06/03 14:05:14;;;;;;;15.50;12.98;;;24.60;99.90;;;;;;6215349;23;20001;-73
2022/06/03 14:07:45;;;;;;;17.85;12.95;;;24.60;99.90;;;;;;6214654;23;20011;-73